sensor_id;sensor_type;location;lat;lon;timestamp;temperature;humidity
212;DHT22;16228;48.800;9.002;2022-09-09T00:00:55;14.80;96.90
212;DHT22;16228;48.800;9.002;2022-09-09T00:03:27;14.80;96.90
212;DHT22;16228;48.800;9.002;2022-09-09T00:06:01;14.70;96.90
212;DHT22;16228;48.800;9.002;2022-09-09T00:08:40;14.70;96.90
212;DHT22;16228;48.800;9.002;2022-09-09T00:11:12;14.70;96.90
212;DHT22;16228;48.800;9.002;2022-09-09T00:13:45;14.70;96.90
212;DHT22;16228;48.800;9.002;2022-09-09T00:16:16;14.70;96.90
212;DHT22;16228;48.800;9.002;2022-09-09T00:18:51;14.80;96.90
212;DHT22;16228;48.800;9.002;2022-09-09T00:21:23;14.80;96.90
212;DHT22;16228;48.800;9.002;2022-09-09T00:23:53;14.80;96.90
212;DHT22;16228;48.800;9.002;2022-09-09T00:26:27;14.90;96.90
212;DHT22;16228;48.800;9.002;2022-09-09T00:29:04;14.90;96.90
212;DHT22;16228;48.800;9.002;2022-09-09T00:31:32;14.90;96.90
212;DHT22;16228;48.800;9.002;2022-09-09T00:34:05;15.00;96.90
212;DHT22;16228;48.800;9.002;2022-09-09T00:36:36;15.00;96.90
212;DHT22;16228;48.800;9.002;2022-09-09T00:39:05;15.10;96.90
212;DHT22;16228;48.800;9.002;2022-09-09T00:41:44;15.10;96.90
212;DHT22;16228;48.800;9.002;2022-09-09T00:44:25;15.10;96.90
212;DHT22;16228;48.800;9.002;2022-09-09T00:47:03;15.10;96.90
212;DHT22;16228;48.800;9.002;2022-09-09T00:49:43;15.10;96.90
212;DHT22;16228;48.800;9.002;2022-09-09T00:52:26;15.20;96.90
212;DHT22;16228;48.800;9.002;2022-09-09T00:55:05;15.20;96.90
212;DHT22;16228;48.800;9.002;2022-09-09T00:57:35;15.30;96.90
212;DHT22;16228;48.800;9.002;2022-09-09T01:00:20;15.30;96.90
212;DHT22;16228;48.800;9.002;2022-09-09T01:03:10;15.40;96.90
212;DHT22;16228;48.800;9.002;2022-09-09T01:05:45;15.40;96.90
212;DHT22;16228;48.800;9.002;2022-09-09T01:08:34;15.40;96.90
212;DHT22;16228;48.800;9.002;2022-09-09T01:11:02;15.40;96.90
212;DHT22;16228;48.800;9.002;2022-09-09T01:13:32;15.50;96.90
212;DHT22;16228;48.800;9.002;2022-09-09T01:16:03;15.40;96.90
212;DHT22;16228;48.800;9.002;2022-09-09T01:18:34;15.50;96.90
212;DHT22;16228;48.800;9.002;2022-09-09T01:21:09;15.40;96.90
212;DHT22;16228;48.800;9.002;2022-09-09T01:24:05;15.40;96.90
212;DHT22;16228;48.800;9.002;2022-09-09T01:26:37;15.40;96.90
212;DHT22;16228;48.800;9.002;2022-09-09T01:29:08;15.40;96.90
212;DHT22;16228;48.800;9.002;2022-09-09T01:31:37;15.40;96.90
212;DHT22;16228;48.800;9.002;2022-09-09T01:34:10;15.40;96.90
212;DHT22;16228;48.800;9.002;2022-09-09T01:36:42;15.30;96.90
212;DHT22;16228;48.800;9.002;2022-09-09T01:39:11;15.30;96.90
212;DHT22;16228;48.800;9.002;2022-09-09T01:41:40;15.40;96.90
212;DHT22;16228;48.800;9.002;2022-09-09T01:44:08;15.40;96.90
212;DHT22;16228;48.800;9.002;2022-09-09T01:46:35;15.40;96.90
212;DHT22;16228;48.800;9.002;2022-09-09T01:49:03;15.30;96.90
212;DHT22;16228;48.800;9.002;2022-09-09T01:51:32;15.30;96.90
212;DHT22;16228;48.800;9.002;2022-09-09T01:53:59;15.30;96.90
212;DHT22;16228;48.800;9.002;2022-09-09T01:56:35;15.20;96.90
212;DHT22;16228;48.800;9.002;2022-09-09T01:59:17;15.10;96.90
212;DHT22;16228;48.800;9.002;2022-09-09T02:01:57;15.10;96.90
212;DHT22;16228;48.800;9.002;2022-09-09T02:04:35;15.00;96.90
212;DHT22;16228;48.800;9.002;2022-09-09T02:07:09;15.00;96.90
212;DHT22;16228;48.800;9.002;2022-09-09T02:09:42;14.90;96.90
212;DHT22;16228;48.800;9.002;2022-09-09T02:12:16;14.80;96.90
212;DHT22;16228;48.800;9.002;2022-09-09T02:14:49;14.70;96.90
212;DHT22;16228;48.800;9.002;2022-09-09T02:17:19;14.70;96.90
212;DHT22;16228;48.800;9.002;2022-09-09T02:19:53;14.60;96.90
212;DHT22;16228;48.800;9.002;2022-09-09T02:22:24;14.50;96.90
212;DHT22;16228;48.800;9.002;2022-09-09T02:24:56;14.50;96.90
212;DHT22;16228;48.800;9.002;2022-09-09T02:27:25;14.40;96.90
212;DHT22;16228;48.800;9.002;2022-09-09T02:29:55;14.40;96.90
212;DHT22;16228;48.800;9.002;2022-09-09T02:32:23;14.30;96.90
212;DHT22;16228;48.800;9.002;2022-09-09T02:34:55;14.20;96.90
212;DHT22;16228;48.800;9.002;2022-09-09T02:37:27;14.10;96.90
212;DHT22;16228;48.800;9.002;2022-09-09T02:39:56;14.10;96.90
212;DHT22;16228;48.800;9.002;2022-09-09T02:42:23;14.10;96.90
212;DHT22;16228;48.800;9.002;2022-09-09T02:44:50;14.10;96.90
212;DHT22;16228;48.800;9.002;2022-09-09T02:47:26;14.10;96.90
212;DHT22;16228;48.800;9.002;2022-09-09T02:50:08;14.10;96.90
212;DHT22;16228;48.800;9.002;2022-09-09T02:52:45;14.10;96.90
212;DHT22;16228;48.800;9.002;2022-09-09T02:55:19;14.00;96.90
212;DHT22;16228;48.800;9.002;2022-09-09T02:57:47;13.90;96.90
212;DHT22;16228;48.800;9.002;2022-09-09T03:00:15;13.90;96.90
212;DHT22;16228;48.800;9.002;2022-09-09T03:02:44;13.90;96.90
212;DHT22;16228;48.800;9.002;2022-09-09T03:05:11;13.90;96.90
212;DHT22;16228;48.800;9.002;2022-09-09T03:07:38;13.80;96.90
212;DHT22;16228;48.800;9.002;2022-09-09T03:10:08;13.90;96.90
212;DHT22;16228;48.800;9.002;2022-09-09T03:12:36;13.80;96.90
212;DHT22;16228;48.800;9.002;2022-09-09T03:15:05;13.90;96.90
212;DHT22;16228;48.800;9.002;2022-09-09T03:17:32;13.90;96.90
212;DHT22;16228;48.800;9.002;2022-09-09T03:20:01;13.90;96.90
212;DHT22;16228;48.800;9.002;2022-09-09T03:22:28;13.90;96.90
212;DHT22;16228;48.800;9.002;2022-09-09T03:24:55;13.90;96.90
212;DHT22;16228;48.800;9.002;2022-09-09T03:27:22;13.90;96.90
212;DHT22;16228;48.800;9.002;2022-09-09T03:29:49;13.80;96.90
212;DHT22;16228;48.800;9.002;2022-09-09T03:32:17;13.80;96.90
212;DHT22;16228;48.800;9.002;2022-09-09T03:34:44;13.80;96.90
212;DHT22;16228;48.800;9.002;2022-09-09T03:37:14;13.70;96.90
212;DHT22;16228;48.800;9.002;2022-09-09T03:39:41;13.80;96.90
212;DHT22;16228;48.800;9.002;2022-09-09T03:42:08;13.70;96.90
212;DHT22;16228;48.800;9.002;2022-09-09T03:44:35;13.70;96.90
212;DHT22;16228;48.800;9.002;2022-09-09T03:47:02;13.70;96.90
212;DHT22;16228;48.800;9.002;2022-09-09T03:49:30;13.70;96.90
212;DHT22;16228;48.800;9.002;2022-09-09T03:51:57;13.70;96.90
212;DHT22;16228;48.800;9.002;2022-09-09T03:54:26;13.70;96.90
212;DHT22;16228;48.800;9.002;2022-09-09T03:56:53;13.60;96.90
212;DHT22;16228;48.800;9.002;2022-09-09T03:59:20;13.70;96.90
212;DHT22;16228;48.800;9.002;2022-09-09T04:01:48;13.70;96.90
212;DHT22;16228;48.800;9.002;2022-09-09T04:04:15;13.80;96.90
212;DHT22;16228;48.800;9.002;2022-09-09T04:06:42;13.80;96.90
212;DHT22;16228;48.800;9.002;2022-09-09T04:09:09;13.90;96.90
212;DHT22;16228;48.800;9.002;2022-09-09T04:11:38;13.90;96.90
212;DHT22;16228;48.800;9.002;2022-09-09T04:14:04;14.00;96.90
212;DHT22;16228;48.800;9.002;2022-09-09T04:16:32;14.00;96.90
212;DHT22;16228;48.800;9.002;2022-09-09T04:19:00;14.00;96.90
212;DHT22;16228;48.800;9.002;2022-09-09T04:21:29;14.10;96.90
212;DHT22;16228;48.800;9.002;2022-09-09T04:23:56;14.10;96.90
212;DHT22;16228;48.800;9.002;2022-09-09T04:26:23;14.20;96.90
212;DHT22;16228;48.800;9.002;2022-09-09T04:28:52;14.20;96.90
212;DHT22;16228;48.800;9.002;2022-09-09T04:31:21;14.20;96.90
212;DHT22;16228;48.800;9.002;2022-09-09T04:33:49;14.30;96.90
212;DHT22;16228;48.800;9.002;2022-09-09T04:36:16;14.40;96.90
212;DHT22;16228;48.800;9.002;2022-09-09T04:38:44;14.40;96.90
212;DHT22;16228;48.800;9.002;2022-09-09T04:41:12;14.40;96.90
212;DHT22;16228;48.800;9.002;2022-09-09T04:43:39;14.40;96.90
212;DHT22;16228;48.800;9.002;2022-09-09T04:46:07;14.40;96.90
212;DHT22;16228;48.800;9.002;2022-09-09T04:48:34;14.50;96.90
212;DHT22;16228;48.800;9.002;2022-09-09T04:51:03;14.40;96.90
212;DHT22;16228;48.800;9.002;2022-09-09T04:53:31;14.40;96.90
212;DHT22;16228;48.800;9.002;2022-09-09T04:56:04;14.40;96.90
212;DHT22;16228;48.800;9.002;2022-09-09T04:58:31;14.40;96.90
212;DHT22;16228;48.800;9.002;2022-09-09T05:01:07;14.50;96.90
212;DHT22;16228;48.800;9.002;2022-09-09T05:03:35;14.50;96.90
212;DHT22;16228;48.800;9.002;2022-09-09T05:06:03;14.50;96.90
212;DHT22;16228;48.800;9.002;2022-09-09T05:08:31;14.60;96.90
212;DHT22;16228;48.800;9.002;2022-09-09T05:10:58;14.60;96.90
212;DHT22;16228;48.800;9.002;2022-09-09T05:13:26;14.70;96.90
212;DHT22;16228;48.800;9.002;2022-09-09T05:15:53;14.70;96.90
212;DHT22;16228;48.800;9.002;2022-09-09T05:18:21;14.70;96.90
212;DHT22;16228;48.800;9.002;2022-09-09T05:20:48;14.80;96.90
212;DHT22;16228;48.800;9.002;2022-09-09T05:23:16;14.80;96.90
212;DHT22;16228;48.800;9.002;2022-09-09T05:25:43;14.90;96.90
212;DHT22;16228;48.800;9.002;2022-09-09T05:28:12;15.00;96.90
212;DHT22;16228;48.800;9.002;2022-09-09T05:30:39;15.00;96.90
212;DHT22;16228;48.800;9.002;2022-09-09T05:33:06;15.10;96.90
212;DHT22;16228;48.800;9.002;2022-09-09T05:35:36;15.10;96.90
212;DHT22;16228;48.800;9.002;2022-09-09T05:38:03;15.20;96.90
212;DHT22;16228;48.800;9.002;2022-09-09T05:40:30;15.10;96.90
212;DHT22;16228;48.800;9.002;2022-09-09T05:43:00;15.20;96.90
212;DHT22;16228;48.800;9.002;2022-09-09T05:45:27;15.20;96.90
212;DHT22;16228;48.800;9.002;2022-09-09T05:47:54;15.20;96.90
212;DHT22;16228;48.800;9.002;2022-09-09T05:50:21;15.40;96.90
212;DHT22;16228;48.800;9.002;2022-09-09T05:52:50;15.40;96.90
212;DHT22;16228;48.800;9.002;2022-09-09T05:55:16;15.50;96.90
212;DHT22;16228;48.800;9.002;2022-09-09T05:57:48;15.50;96.90
212;DHT22;16228;48.800;9.002;2022-09-09T06:00:17;15.60;96.90
212;DHT22;16228;48.800;9.002;2022-09-09T06:02:50;15.70;96.90
212;DHT22;16228;48.800;9.002;2022-09-09T06:05:18;15.80;96.90
212;DHT22;16228;48.800;9.002;2022-09-09T06:07:45;15.90;96.90
212;DHT22;16228;48.800;9.002;2022-09-09T06:10:14;16.00;96.90
212;DHT22;16228;48.800;9.002;2022-09-09T06:12:41;16.10;96.90
212;DHT22;16228;48.800;9.002;2022-09-09T06:15:09;16.20;96.90
212;DHT22;16228;48.800;9.002;2022-09-09T06:17:36;16.30;96.90
212;DHT22;16228;48.800;9.002;2022-09-09T06:20:05;16.30;96.90
212;DHT22;16228;48.800;9.002;2022-09-09T06:22:32;16.40;96.90
212;DHT22;16228;48.800;9.002;2022-09-09T06:24:59;16.50;96.90
212;DHT22;16228;48.800;9.002;2022-09-09T06:27:28;16.60;96.90
212;DHT22;16228;48.800;9.002;2022-09-09T06:29:55;16.70;96.90
212;DHT22;16228;48.800;9.002;2022-09-09T06:32:22;16.80;96.90
212;DHT22;16228;48.800;9.002;2022-09-09T06:34:49;16.80;96.90
212;DHT22;16228;48.800;9.002;2022-09-09T06:37:16;16.80;96.90
212;DHT22;16228;48.800;9.002;2022-09-09T06:39:43;16.80;96.90
212;DHT22;16228;48.800;9.002;2022-09-09T06:42:10;17.00;96.90
212;DHT22;16228;48.800;9.002;2022-09-09T06:44:38;17.00;96.90
212;DHT22;16228;48.800;9.002;2022-09-09T06:47:06;17.10;96.90
212;DHT22;16228;48.800;9.002;2022-09-09T06:49:33;17.20;96.90
212;DHT22;16228;48.800;9.002;2022-09-09T06:52:00;17.40;96.90
212;DHT22;16228;48.800;9.002;2022-09-09T06:54:27;17.60;96.90
212;DHT22;16228;48.800;9.002;2022-09-09T06:56:54;17.70;96.90
212;DHT22;16228;48.800;9.002;2022-09-09T06:59:22;17.80;96.90
212;DHT22;16228;48.800;9.002;2022-09-09T07:01:50;18.00;96.90
212;DHT22;16228;48.800;9.002;2022-09-09T07:04:20;18.10;96.90
212;DHT22;16228;48.800;9.002;2022-09-09T07:06:47;18.20;96.90
212;DHT22;16228;48.800;9.002;2022-09-09T07:09:15;18.30;96.90
212;DHT22;16228;48.800;9.002;2022-09-09T07:11:43;18.40;96.90
212;DHT22;16228;48.800;9.002;2022-09-09T07:14:11;18.50;96.90
212;DHT22;16228;48.800;9.002;2022-09-09T07:16:39;18.70;96.90
212;DHT22;16228;48.800;9.002;2022-09-09T07:19:09;19.20;96.90
212;DHT22;16228;48.800;9.002;2022-09-09T07:21:36;19.70;96.90
212;DHT22;16228;48.800;9.002;2022-09-09T07:24:03;19.90;96.90
212;DHT22;16228;48.800;9.002;2022-09-09T07:26:33;20.00;96.90
212;DHT22;16228;48.800;9.002;2022-09-09T07:29:00;20.30;96.90
212;DHT22;16228;48.800;9.002;2022-09-09T07:31:29;20.50;96.90
212;DHT22;16228;48.800;9.002;2022-09-09T07:33:57;20.70;96.90
212;DHT22;16228;48.800;9.002;2022-09-09T07:36:28;20.80;96.90
212;DHT22;16228;48.800;9.002;2022-09-09T07:38:57;20.80;96.90
212;DHT22;16228;48.800;9.002;2022-09-09T07:41:26;20.80;96.90
212;DHT22;16228;48.800;9.002;2022-09-09T07:43:53;20.80;96.90
212;DHT22;16228;48.800;9.002;2022-09-09T07:46:23;21.50;96.90
212;DHT22;16228;48.800;9.002;2022-09-09T07:48:53;23.50;96.90
212;DHT22;16228;48.800;9.002;2022-09-09T07:51:22;25.90;91.90
212;DHT22;16228;48.800;9.002;2022-09-09T07:53:53;28.20;85.70
212;DHT22;16228;48.800;9.002;2022-09-09T07:56:21;29.80;79.80
212;DHT22;16228;48.800;9.002;2022-09-09T07:58:49;30.30;76.20
212;DHT22;16228;48.800;9.002;2022-09-09T08:01:18;30.20;77.40
212;DHT22;16228;48.800;9.002;2022-09-09T08:03:46;29.80;77.50
212;DHT22;16228;48.800;9.002;2022-09-09T08:06:14;28.90;79.90
212;DHT22;16228;48.800;9.002;2022-09-09T08:08:41;28.70;81.20
212;DHT22;16228;48.800;9.002;2022-09-09T08:11:11;29.60;79.80
212;DHT22;16228;48.800;9.002;2022-09-09T08:13:41;30.90;76.50
212;DHT22;16228;48.800;9.002;2022-09-09T08:16:10;32.00;71.30
212;DHT22;16228;48.800;9.002;2022-09-09T08:18:38;32.50;69.40
212;DHT22;16228;48.800;9.002;2022-09-09T08:21:07;32.80;70.80
212;DHT22;16228;48.800;9.002;2022-09-09T08:23:34;33.00;71.30
212;DHT22;16228;48.800;9.002;2022-09-09T08:26:12;32.30;69.10
212;DHT22;16228;48.800;9.002;2022-09-09T08:28:40;32.00;72.40
212;DHT22;16228;48.800;9.002;2022-09-09T08:31:10;32.40;69.60
212;DHT22;16228;48.800;9.002;2022-09-09T08:33:37;32.10;72.60
212;DHT22;16228;48.800;9.002;2022-09-09T08:36:06;32.20;71.60
212;DHT22;16228;48.800;9.002;2022-09-09T08:38:34;32.90;69.40
212;DHT22;16228;48.800;9.002;2022-09-09T08:41:37;33.60;67.90
212;DHT22;16228;48.800;9.002;2022-09-09T08:44:08;34.30;64.70
212;DHT22;16228;48.800;9.002;2022-09-09T08:46:44;34.20;65.60
212;DHT22;16228;48.800;9.002;2022-09-09T08:49:30;33.90;66.20
212;DHT22;16228;48.800;9.002;2022-09-09T08:52:09;34.50;66.50
212;DHT22;16228;48.800;9.002;2022-09-09T08:54:41;35.40;64.10
212;DHT22;16228;48.800;9.002;2022-09-09T08:57:16;35.10;62.00
212;DHT22;16228;48.800;9.002;2022-09-09T08:59:45;34.30;63.70
212;DHT22;16228;48.800;9.002;2022-09-09T09:02:16;33.20;64.40
212;DHT22;16228;48.800;9.002;2022-09-09T09:05:03;31.70;68.40
212;DHT22;16228;48.800;9.002;2022-09-09T09:07:42;29.70;70.20
212;DHT22;16228;48.800;9.002;2022-09-09T09:10:26;27.90;74.50
212;DHT22;16228;48.800;9.002;2022-09-09T09:12:59;26.80;77.70
212;DHT22;16228;48.800;9.002;2022-09-09T09:15:32;26.00;79.60
212;DHT22;16228;48.800;9.002;2022-09-09T09:18:03;25.70;82.50
212;DHT22;16228;48.800;9.002;2022-09-09T09:20:39;26.10;81.30
212;DHT22;16228;48.800;9.002;2022-09-09T09:23:16;27.30;79.60
212;DHT22;16228;48.800;9.002;2022-09-09T09:25:46;29.10;77.80
212;DHT22;16228;48.800;9.002;2022-09-09T09:28:16;30.30;73.30
212;DHT22;16228;48.800;9.002;2022-09-09T09:30:48;31.30;70.70
212;DHT22;16228;48.800;9.002;2022-09-09T09:33:20;32.40;68.30
212;DHT22;16228;48.800;9.002;2022-09-09T09:35:49;33.10;68.40
212;DHT22;16228;48.800;9.002;2022-09-09T09:38:18;33.50;65.30
212;DHT22;16228;48.800;9.002;2022-09-09T09:40:52;33.00;66.00
212;DHT22;16228;48.800;9.002;2022-09-09T09:43:28;33.10;64.90
212;DHT22;16228;48.800;9.002;2022-09-09T09:45:56;33.40;64.60
212;DHT22;16228;48.800;9.002;2022-09-09T09:48:25;33.70;64.40
212;DHT22;16228;48.800;9.002;2022-09-09T09:50:54;34.50;63.40
212;DHT22;16228;48.800;9.002;2022-09-09T09:53:24;35.00;61.00
212;DHT22;16228;48.800;9.002;2022-09-09T09:55:55;35.00;61.50
212;DHT22;16228;48.800;9.002;2022-09-09T09:58:26;35.50;59.20
212;DHT22;16228;48.800;9.002;2022-09-09T10:00:55;36.00;58.60
212;DHT22;16228;48.800;9.002;2022-09-09T10:03:25;36.70;58.20
212;DHT22;16228;48.800;9.002;2022-09-09T10:05:53;36.90;58.90
212;DHT22;16228;48.800;9.002;2022-09-09T10:08:21;37.60;57.30
212;DHT22;16228;48.800;9.002;2022-09-09T10:11:05;37.40;56.30
212;DHT22;16228;48.800;9.002;2022-09-09T10:13:42;37.60;59.20
212;DHT22;16228;48.800;9.002;2022-09-09T10:16:30;36.90;55.20
212;DHT22;16228;48.800;9.002;2022-09-09T10:19:03;36.20;58.20
212;DHT22;16228;48.800;9.002;2022-09-09T10:21:56;36.30;62.00
212;DHT22;16228;48.800;9.002;2022-09-09T10:24:49;36.70;57.80
212;DHT22;16228;48.800;9.002;2022-09-09T10:27:23;36.70;57.60
212;DHT22;16228;48.800;9.002;2022-09-09T10:30:04;36.60;60.10
212;DHT22;16228;48.800;9.002;2022-09-09T10:32:39;35.10;62.50
212;DHT22;16228;48.800;9.002;2022-09-09T10:35:12;33.70;63.00
212;DHT22;16228;48.800;9.002;2022-09-09T10:40:43;32.60;67.70
212;DHT22;16228;48.800;9.002;2022-09-09T10:43:20;31.80;73.70
212;DHT22;16228;48.800;9.002;2022-09-09T10:46:00;30.80;80.00
212;DHT22;16228;48.800;9.002;2022-09-09T10:48:38;29.50;80.70
212;DHT22;16228;48.800;9.002;2022-09-09T10:51:23;28.00;83.70
212;DHT22;16228;48.800;9.002;2022-09-09T10:54:09;26.60;88.30
212;DHT22;16228;48.800;9.002;2022-09-09T10:56:42;25.20;92.70
212;DHT22;16228;48.800;9.002;2022-09-09T10:59:16;24.10;96.20
212;DHT22;16228;48.800;9.002;2022-09-09T11:01:48;23.20;96.90
212;DHT22;16228;48.800;9.002;2022-09-09T11:04:22;22.30;96.90
212;DHT22;16228;48.800;9.002;2022-09-09T11:06:54;21.50;96.90
212;DHT22;16228;48.800;9.002;2022-09-09T11:09:23;20.90;96.90
212;DHT22;16228;48.800;9.002;2022-09-09T11:11:53;20.50;96.90
212;DHT22;16228;48.800;9.002;2022-09-09T11:14:26;20.40;96.90
212;DHT22;16228;48.800;9.002;2022-09-09T11:16:59;20.50;96.90
212;DHT22;16228;48.800;9.002;2022-09-09T11:19:30;20.60;96.90
212;DHT22;16228;48.800;9.002;2022-09-09T11:22:01;20.60;96.90
212;DHT22;16228;48.800;9.002;2022-09-09T11:24:33;20.60;96.90
212;DHT22;16228;48.800;9.002;2022-09-09T11:27:08;20.20;96.90
212;DHT22;16228;48.800;9.002;2022-09-09T11:30:00;19.70;96.90
212;DHT22;16228;48.800;9.002;2022-09-09T11:32:49;19.30;96.90
212;DHT22;16228;48.800;9.002;2022-09-09T11:35:28;19.10;96.90
212;DHT22;16228;48.800;9.002;2022-09-09T11:38:15;19.10;96.90
212;DHT22;16228;48.800;9.002;2022-09-09T11:40:44;19.20;96.90
212;DHT22;16228;48.800;9.002;2022-09-09T11:43:13;19.30;96.90
212;DHT22;16228;48.800;9.002;2022-09-09T11:45:50;19.50;96.90
212;DHT22;16228;48.800;9.002;2022-09-09T11:48:30;19.60;96.90
212;DHT22;16228;48.800;9.002;2022-09-09T11:50:59;19.80;96.90
212;DHT22;16228;48.800;9.002;2022-09-09T11:53:27;20.10;96.90
212;DHT22;16228;48.800;9.002;2022-09-09T11:56:02;20.60;96.90
212;DHT22;16228;48.800;9.002;2022-09-09T11:58:38;21.40;96.90
212;DHT22;16228;48.800;9.002;2022-09-09T12:04:30;24.40;96.90
212;DHT22;16228;48.800;9.002;2022-09-09T12:07:18;27.00;96.90
212;DHT22;16228;48.800;9.002;2022-09-09T12:09:51;29.30;89.30
212;DHT22;16228;48.800;9.002;2022-09-09T12:12:31;30.10;84.50
212;DHT22;16228;48.800;9.002;2022-09-09T12:15:02;30.30;87.40
212;DHT22;16228;48.800;9.002;2022-09-09T12:17:31;31.20;79.80
212;DHT22;16228;48.800;9.002;2022-09-09T12:20:12;31.00;80.10
212;DHT22;16228;48.800;9.002;2022-09-09T12:25:35;30.00;77.70
212;DHT22;16228;48.800;9.002;2022-09-09T12:28:09;30.60;77.40
212;DHT22;16228;48.800;9.002;2022-09-09T12:30:44;30.90;74.10
212;DHT22;16228;48.800;9.002;2022-09-09T12:33:17;31.40;74.90
212;DHT22;16228;48.800;9.002;2022-09-09T12:35:50;31.70;77.20
212;DHT22;16228;48.800;9.002;2022-09-09T12:38:26;31.00;77.10
212;DHT22;16228;48.800;9.002;2022-09-09T12:40:56;31.30;76.30
212;DHT22;16228;48.800;9.002;2022-09-09T12:43:25;31.10;74.80
212;DHT22;16228;48.800;9.002;2022-09-09T12:45:55;30.70;73.40
212;DHT22;16228;48.800;9.002;2022-09-09T12:48:29;30.50;75.80
212;DHT22;16228;48.800;9.002;2022-09-09T12:50:59;30.60;73.90
212;DHT22;16228;48.800;9.002;2022-09-09T12:53:29;30.70;76.80
212;DHT22;16228;48.800;9.002;2022-09-09T12:55:59;30.80;77.20
212;DHT22;16228;48.800;9.002;2022-09-09T12:58:29;30.80;72.60
212;DHT22;16228;48.800;9.002;2022-09-09T13:00:59;31.00;75.60
212;DHT22;16228;48.800;9.002;2022-09-09T13:03:26;30.70;74.20
212;DHT22;16228;48.800;9.002;2022-09-09T13:06:09;30.10;74.40
212;DHT22;16228;48.800;9.002;2022-09-09T13:08:37;29.00;74.80
212;DHT22;16228;48.800;9.002;2022-09-09T13:11:07;28.70;77.40
212;DHT22;16228;48.800;9.002;2022-09-09T13:13:39;28.40;77.70
212;DHT22;16228;48.800;9.002;2022-09-09T13:16:17;28.10;77.70
212;DHT22;16228;48.800;9.002;2022-09-09T13:18:45;27.80;80.80
212;DHT22;16228;48.800;9.002;2022-09-09T13:21:13;27.30;82.40
212;DHT22;16228;48.800;9.002;2022-09-09T13:23:41;26.70;79.90
212;DHT22;16228;48.800;9.002;2022-09-09T13:26:21;26.30;83.40
212;DHT22;16228;48.800;9.002;2022-09-09T13:28:49;26.10;82.70
212;DHT22;16228;48.800;9.002;2022-09-09T13:31:22;25.60;83.60
212;DHT22;16228;48.800;9.002;2022-09-09T13:33:49;25.40;84.50
212;DHT22;16228;48.800;9.002;2022-09-09T13:36:28;25.40;89.30
212;DHT22;16228;48.800;9.002;2022-09-09T13:38:57;25.20;81.70
212;DHT22;16228;48.800;9.002;2022-09-09T13:41:28;24.70;81.90
212;DHT22;16228;48.800;9.002;2022-09-09T13:43:57;24.70;86.10
212;DHT22;16228;48.800;9.002;2022-09-09T13:46:27;25.00;84.50
212;DHT22;16228;48.800;9.002;2022-09-09T13:48:56;25.10;82.10
212;DHT22;16228;48.800;9.002;2022-09-09T13:51:33;25.10;79.50
212;DHT22;16228;48.800;9.002;2022-09-09T13:54:00;25.20;82.80
212;DHT22;16228;48.800;9.002;2022-09-09T13:56:27;24.90;80.20
212;DHT22;16228;48.800;9.002;2022-09-09T13:58:54;24.60;84.30
212;DHT22;16228;48.800;9.002;2022-09-09T14:01:23;24.40;81.80
212;DHT22;16228;48.800;9.002;2022-09-09T14:03:50;24.30;84.00
212;DHT22;16228;48.800;9.002;2022-09-09T14:06:18;24.30;85.90
212;DHT22;16228;48.800;9.002;2022-09-09T14:08:49;24.30;85.60
212;DHT22;16228;48.800;9.002;2022-09-09T14:11:17;24.10;85.00
212;DHT22;16228;48.800;9.002;2022-09-09T14:13:44;24.10;86.20
212;DHT22;16228;48.800;9.002;2022-09-09T14:16:12;24.10;83.30
212;DHT22;16228;48.800;9.002;2022-09-09T14:18:39;24.00;83.60
212;DHT22;16228;48.800;9.002;2022-09-09T14:21:06;23.80;82.50
212;DHT22;16228;48.800;9.002;2022-09-09T14:23:34;23.50;84.50
212;DHT22;16228;48.800;9.002;2022-09-09T14:26:02;23.10;83.40
212;DHT22;16228;48.800;9.002;2022-09-09T14:28:29;22.90;84.40
212;DHT22;16228;48.800;9.002;2022-09-09T14:30:59;22.90;86.40
212;DHT22;16228;48.800;9.002;2022-09-09T14:33:26;22.90;85.60
212;DHT22;16228;48.800;9.002;2022-09-09T14:35:56;23.20;84.10
212;DHT22;16228;48.800;9.002;2022-09-09T14:38:23;23.40;84.30
212;DHT22;16228;48.800;9.002;2022-09-09T14:40:51;23.60;86.00
212;DHT22;16228;48.800;9.002;2022-09-09T14:43:19;23.70;82.80
212;DHT22;16228;48.800;9.002;2022-09-09T14:45:46;23.60;82.30
212;DHT22;16228;48.800;9.002;2022-09-09T14:48:14;23.30;84.00
212;DHT22;16228;48.800;9.002;2022-09-09T14:50:41;23.10;83.10
212;DHT22;16228;48.800;9.002;2022-09-09T14:53:08;22.90;84.80
212;DHT22;16228;48.800;9.002;2022-09-09T14:55:35;22.70;82.60
212;DHT22;16228;48.800;9.002;2022-09-09T14:58:03;22.50;87.70
212;DHT22;16228;48.800;9.002;2022-09-09T15:00:31;22.30;86.70
212;DHT22;16228;48.800;9.002;2022-09-09T15:02:58;22.10;85.90
212;DHT22;16228;48.800;9.002;2022-09-09T15:05:25;22.10;85.20
212;DHT22;16228;48.800;9.002;2022-09-09T15:07:53;22.00;88.60
212;DHT22;16228;48.800;9.002;2022-09-09T15:10:20;22.00;90.90
212;DHT22;16228;48.800;9.002;2022-09-09T15:12:47;22.10;89.10
212;DHT22;16228;48.800;9.002;2022-09-09T15:15:14;22.10;86.00
212;DHT22;16228;48.800;9.002;2022-09-09T15:17:42;22.10;87.90
212;DHT22;16228;48.800;9.002;2022-09-09T15:20:10;22.00;88.70
212;DHT22;16228;48.800;9.002;2022-09-09T15:22:37;21.90;87.50
212;DHT22;16228;48.800;9.002;2022-09-09T15:25:05;21.90;87.80
212;DHT22;16228;48.800;9.002;2022-09-09T15:27:33;21.90;89.80
212;DHT22;16228;48.800;9.002;2022-09-09T15:30:00;22.00;87.00
212;DHT22;16228;48.800;9.002;2022-09-09T15:32:27;22.10;89.30
212;DHT22;16228;48.800;9.002;2022-09-09T15:34:56;22.20;87.40
212;DHT22;16228;48.800;9.002;2022-09-09T15:37:23;22.20;89.90
212;DHT22;16228;48.800;9.002;2022-09-09T15:39:50;22.20;88.50
212;DHT22;16228;48.800;9.002;2022-09-09T15:42:17;22.10;88.70
212;DHT22;16228;48.800;9.002;2022-09-09T15:44:44;21.90;89.60
212;DHT22;16228;48.800;9.002;2022-09-09T15:47:11;21.70;91.30
212;DHT22;16228;48.800;9.002;2022-09-09T15:49:39;21.50;90.00
212;DHT22;16228;48.800;9.002;2022-09-09T15:52:09;21.50;90.80
212;DHT22;16228;48.800;9.002;2022-09-09T15:54:37;21.30;91.30
212;DHT22;16228;48.800;9.002;2022-09-09T15:57:06;21.20;91.60
212;DHT22;16228;48.800;9.002;2022-09-09T15:59:34;21.10;93.50
212;DHT22;16228;48.800;9.002;2022-09-09T16:02:01;21.10;91.50
212;DHT22;16228;48.800;9.002;2022-09-09T16:04:28;21.00;91.80
212;DHT22;16228;48.800;9.002;2022-09-09T16:06:58;20.90;93.80
212;DHT22;16228;48.800;9.002;2022-09-09T16:09:28;20.90;92.00
212;DHT22;16228;48.800;9.002;2022-09-09T16:11:56;20.80;93.00
212;DHT22;16228;48.800;9.002;2022-09-09T16:14:24;20.80;94.40
212;DHT22;16228;48.800;9.002;2022-09-09T16:16:52;20.70;94.10
212;DHT22;16228;48.800;9.002;2022-09-09T16:19:20;20.50;92.90
212;DHT22;16228;48.800;9.002;2022-09-09T16:21:49;20.30;93.00
212;DHT22;16228;48.800;9.002;2022-09-09T16:24:17;20.10;92.40
212;DHT22;16228;48.800;9.002;2022-09-09T16:26:47;19.90;94.20
212;DHT22;16228;48.800;9.002;2022-09-09T16:29:16;19.80;95.50
212;DHT22;16228;48.800;9.002;2022-09-09T16:31:43;19.50;93.90
212;DHT22;16228;48.800;9.002;2022-09-09T16:34:11;19.30;94.00